Aviation Digital Data Service (ADDS)

Output produced by METARs form (1423 UTC 20 October 2021)
found at http://www.aviationweather.gov/metar/data/
 
METAR text: KMTH 201353Z AUTO 07011G19KT 10SM FEW031 SCT039 OVC065 27/21 A3013 RMK AO2 SLP201 T02720206
Conditions at: KMTH (MARATHON , FL, US) observed 1353 UTC 20 October 2021
Temperature: 27.2°C (81°F)
Dewpoint: 20.6°C (69°F) [RH = 67%]
Pressure (altimeter): 30.13 inches Hg (1020.4 mb)
[Sea-level pressure: 1020.1 mb]
Winds: from the ENE (70 degrees) at 13 MPH (11 knots; 5.7 m/s)
gusting to 22 MPH (19 knots; 9.8 m/s)
Visibility: 10 or more miles (16+ km)
Ceiling: 6500 feet AGL
Clouds: few clouds at 3100 feet AGL
scattered clouds at 3900 feet AGL
overcast cloud deck at 6500 feet AGL
Weather: automated observation with no human augmentation;
there may or may not be significant weather present at this time

Forecast for: KMTH (MARATHON , FL, US)
Text: KMTH 201139Z 2012/2112 05010G18KT P6SM FEW035
Forecast period: 1200 UTC 20 October 2021 to 1200 UTC 21 October 2021
Forecast type: FROM: standard forecast or significant change
Winds: from the NE (50 degrees) at 12 MPH (10 knots; 5.1 m/s)
gusting to 21 MPH (18 knots; 9.3 m/s)
Visibility: 6 or more miles (10+ km)
Ceiling: at least 12,000 feet AGL
Clouds: few clouds at 3500 feet AGL
Weather: no significant weather forecast for this period